createdAt,value
2018-12-17T00:02:21.161Z,95843.77
2018-12-17T00:04:51.284Z,95845.12
2018-12-17T00:08:21.579Z,95841.75
2018-12-17T00:10:51.543Z,95845.00
2018-12-17T00:13:21.581Z,95845.89
2018-12-17T00:15:51.566Z,95847.87
2018-12-17T00:18:21.513Z,95851.90
2018-12-17T00:20:51.617Z,95856.84
2018-12-17T00:23:21.671Z,95857.51
2018-12-17T00:25:51.594Z,95857.08
2018-12-17T00:28:21.459Z,95861.80
2018-12-17T00:30:51.381Z,95858.55
2018-12-17T00:33:21.480Z,95868.16
2018-12-17T00:35:51.400Z,95872.52
2018-12-17T00:38:21.322Z,95871.73
2018-12-17T00:40:51.232Z,95878.01
2018-12-17T00:43:21.440Z,95884.05
2018-12-17T00:45:51.261Z,95879.45
2018-12-17T00:48:21.663Z,95880.81
2018-12-17T00:50:51.708Z,95881.92
2018-12-17T00:53:21.602Z,95888.17
2018-12-17T00:55:51.678Z,95885.28
2018-12-17T00:58:21.554Z,95887.74
2018-12-17T01:00:51.490Z,95887.86
2018-12-17T01:03:21.286Z,95896.70
2018-12-17T01:05:52.173Z,95892.20
2018-12-17T01:09:23.205Z,95897.49
2018-12-17T01:11:53.401Z,95902.86
2018-12-17T01:14:23.316Z,95908.24
2018-12-17T01:16:53.177Z,95911.59
2018-12-17T01:19:23.820Z,95917.41
2018-12-17T01:21:54.960Z,95915.41
2018-12-17T01:24:26.945Z,95918.98
2018-12-17T01:26:57.227Z,95917.53
2018-12-17T01:29:27.232Z,95920.33
2018-12-17T01:31:57.147Z,95916.30
2018-12-17T01:34:27.011Z,95925.25
2018-12-17T01:36:56.903Z,95929.16
2018-12-17T01:39:26.725Z,95931.28
2018-12-17T01:41:57.516Z,95926.83
2018-12-17T01:44:27.481Z,95928.28
2018-12-17T01:46:57.321Z,95939.80
2018-12-17T01:49:27.069Z,95942.81
2018-12-17T01:51:57.071Z,95946.06
2018-12-17T01:54:26.826Z,95948.44
2018-12-17T01:56:57.138Z,95951.00
2018-12-17T01:59:26.952Z,95952.89
2018-12-17T02:01:58.328Z,95949.66
2018-12-17T02:04:28.566Z,95947.54
2018-12-17T02:06:58.560Z,95951.89
2018-12-17T02:09:28.383Z,95957.61
2018-12-17T02:11:59.330Z,95957.61
2018-12-17T02:14:29.198Z,95951.33
2018-12-17T02:16:59.117Z,95961.09
2018-12-17T02:19:29.391Z,95954.13
2018-12-17T02:21:59.200Z,95957.37
2018-12-17T02:24:29.012Z,95960.50
2018-12-17T02:26:58.939Z,95959.49
2018-12-17T02:29:28.987Z,95961.30
2018-12-17T02:31:59.547Z,95955.82
2018-12-17T02:34:29.593Z,95966.09
2018-12-17T02:36:59.500Z,95966.77
2018-12-17T02:39:29.437Z,95971.80
2018-12-17T02:41:59.435Z,95974.17
2018-12-17T02:44:29.793Z,95977.98
2018-12-17T02:46:59.650Z,95977.86
2018-12-17T02:49:30.314Z,95977.08
2018-12-17T02:52:00.511Z,95989.30
2018-12-17T02:54:30.322Z,95986.38
2018-12-17T02:57:00.244Z,95993.88
2018-12-17T02:59:32.176Z,95998.70
2018-12-17T03:02:02.041Z,96004.41
2018-12-17T03:04:32.117Z,96000.82
2018-12-17T03:07:02.158Z,96008.09
2018-12-17T03:09:31.959Z,96008.08
2018-12-17T03:12:01.836Z,96001.68
2018-12-17T03:14:31.871Z,96009.88
2018-12-17T03:17:02.112Z,96015.34
2018-12-17T03:19:31.893Z,96019.61
2018-12-17T03:22:02.409Z,96021.48
2018-12-17T03:24:32.497Z,96025.48
2018-12-17T03:27:02.821Z,96023.67
2018-12-17T03:29:32.770Z,96032.64
2018-12-17T03:32:02.809Z,96033.59
2018-12-17T03:34:32.849Z,96046.03
2018-12-17T03:37:03.019Z,96045.00
2018-12-17T03:39:32.794Z,96046.93
2018-12-17T03:42:03.013Z,96053.83
2018-12-17T03:44:32.789Z,96048.02
2018-12-17T03:47:02.639Z,96048.02
2018-12-17T03:49:32.447Z,96053.83
2018-12-17T03:52:02.227Z,96058.35
2018-12-17T03:54:32.062Z,96060.70
2018-12-17T03:57:01.872Z,96063.39
2018-12-17T03:59:31.945Z,96066.52
2018-12-17T04:02:01.700Z,96066.63
2018-12-17T04:04:31.468Z,96069.88
2018-12-17T04:07:01.312Z,96064.69
2018-12-17T04:09:31.189Z,96071.51
2018-12-17T04:12:00.950Z,96075.59
2018-12-17T04:14:30.775Z,96080.62
2018-12-17T04:17:01.991Z,96081.83
2018-12-17T04:19:31.853Z,96087.55
2018-12-17T04:22:01.672Z,96090.97
2018-12-17T04:24:31.486Z,96100.84
2018-12-17T04:27:01.268Z,96106.61
2018-12-17T04:29:31.489Z,96104.58
2018-12-17T04:32:01.361Z,96105.11
2018-12-17T04:34:31.275Z,96111.88
2018-12-17T04:37:01.083Z,96118.02
2018-12-17T04:39:30.869Z,96122.20
2018-12-17T04:42:01.452Z,96128.27
2018-12-17T04:44:31.281Z,96132.82
2018-12-17T04:47:01.101Z,96132.61
2018-12-17T04:49:30.882Z,96131.50
2018-12-17T04:52:00.643Z,96132.92
2018-12-17T04:58:07.083Z,96146.59
2018-12-17T05:00:37.077Z,96150.63
2018-12-17T05:03:06.934Z,96153.77
2018-12-17T05:05:38.216Z,96161.21
2018-12-17T05:08:08.321Z,96160.03
2018-12-17T05:10:38.203Z,96164.06
2018-12-17T05:13:08.321Z,96165.89
2018-12-17T05:15:38.159Z,96165.89
2018-12-17T05:18:09.055Z,96165.65
2018-12-17T05:20:38.991Z,96175.05
2018-12-17T05:26:44.405Z,96190.89
2018-12-17T05:29:14.225Z,96192.00
2018-12-17T05:31:44.181Z,96197.24
2018-12-17T05:34:13.970Z,96192.97
2018-12-17T05:36:44.120Z,96198.59
2018-12-17T05:42:49.785Z,96209.38
2018-12-17T05:45:19.660Z,96217.53
2018-12-17T05:47:49.620Z,96223.59
2018-12-17T05:50:19.564Z,96226.98
2018-12-17T05:52:49.522Z,96231.25
2018-12-17T05:55:19.501Z,96234.03
2018-12-17T05:57:49.593Z,96240.72
2018-12-17T06:00:19.423Z,96243.64
2018-12-17T06:02:50.633Z,96250.27
2018-12-17T06:05:21.208Z,96244.70
2018-12-17T06:07:51.483Z,96253.70
2018-12-17T06:10:21.288Z,96252.70
2018-12-17T06:12:51.161Z,96257.63
2018-12-17T06:15:21.053Z,96254.64
2018-12-17T06:17:51.248Z,96257.37
2018-12-17T06:20:21.113Z,96254.29
2018-12-17T06:22:51.286Z,96265.79
2018-12-17T06:25:21.184Z,96269.67
2018-12-17T06:27:52.055Z,96274.25
2018-12-17T06:30:22.123Z,96285.44
2018-12-17T06:32:52.357Z,96287.98
2018-12-17T06:35:22.698Z,96296.73
2018-12-17T06:37:52.704Z,96310.31
2018-12-17T06:40:22.608Z,96309.92
2018-12-17T06:42:52.388Z,96310.96
2018-12-17T06:46:23.324Z,96312.26
2018-12-17T06:48:53.234Z,96319.42
2018-12-17T06:51:24.286Z,96323.31
2018-12-17T06:53:54.078Z,96324.98
2018-12-17T06:56:23.910Z,96327.82
2018-12-17T06:58:53.735Z,96328.83
2018-12-17T07:01:24.214Z,96328.64
2018-12-17T07:03:53.989Z,96330.13
2018-12-17T07:06:23.835Z,96339.58
2018-12-17T07:08:53.971Z,96341.13
2018-12-17T07:11:24.101Z,96344.56
2018-12-17T07:13:53.929Z,96350.52
2018-12-17T07:16:24.294Z,96348.78
2018-12-17T07:18:54.464Z,96351.19
2018-12-17T07:21:24.331Z,96360.83
2018-12-17T07:23:58.825Z,96369.88
2018-12-17T07:26:26.693Z,96377.88
2018-12-17T07:28:56.488Z,96386.37
2018-12-17T07:31:26.310Z,96392.66
2018-12-17T07:33:56.735Z,96392.25
2018-12-17T07:36:26.527Z,96395.06
2018-12-17T07:38:56.322Z,96398.05
2018-12-17T07:41:26.131Z,96403.63
2018-12-17T07:43:56.908Z,96410.50
2018-12-17T07:46:26.737Z,96414.20
2018-12-17T07:48:56.575Z,96420.64
2018-12-17T07:51:26.381Z,96426.38
2018-12-17T07:53:56.157Z,96425.43
2018-12-17T07:56:25.957Z,96428.21
2018-12-17T07:58:55.902Z,96439.63
2018-12-17T08:01:25.761Z,96453.31
2018-12-17T08:03:56.507Z,96450.77
2018-12-17T08:06:27.382Z,96461.25
2018-12-17T08:08:57.434Z,96466.68
2018-12-17T08:11:27.624Z,96470.47
2018-12-17T08:13:57.419Z,96469.12
2018-12-17T08:16:27.259Z,96467.28
2018-12-17T08:18:57.093Z,96472.59
2018-12-17T08:21:26.874Z,96474.63
2018-12-17T08:23:56.726Z,96485.48
2018-12-17T08:26:26.542Z,96494.89
2018-12-17T08:28:56.654Z,96497.03
2018-12-17T08:31:26.459Z,96504.03
2018-12-17T08:33:56.323Z,96503.30
2018-12-17T08:36:26.089Z,96504.02
2018-12-17T08:38:55.875Z,96510.61
2018-12-17T08:41:25.827Z,96511.64
2018-12-17T08:43:55.598Z,96519.28
2018-12-17T08:46:25.577Z,96520.63
2018-12-17T08:48:56.690Z,96519.67
2018-12-17T08:51:26.494Z,96531.89
2018-12-17T08:53:56.406Z,96530.64
2018-12-17T08:56:26.218Z,96536.87
2018-12-17T08:58:56.010Z,96548.42
2018-12-17T09:01:26.105Z,96550.44
2018-12-17T09:03:56.211Z,96551.69
2018-12-17T09:06:26.454Z,96563.58
2018-12-17T09:08:56.280Z,96563.24
2018-12-17T09:11:26.420Z,96567.48
2018-12-17T09:13:56.243Z,96573.77
2018-12-17T09:16:26.026Z,96578.77
2018-12-17T09:18:55.802Z,96583.29
2018-12-17T09:21:25.590Z,96581.45
2018-12-17T09:23:55.509Z,96588.33
2018-12-17T09:26:25.344Z,96594.17
2018-12-17T09:28:55.766Z,96604.44
2018-12-17T09:31:25.518Z,96610.50
2018-12-17T09:33:55.992Z,96603.47
2018-12-17T09:36:25.832Z,96611.70
2018-12-17T09:38:56.658Z,96611.09
2018-12-17T09:41:26.776Z,96615.03
2018-12-17T09:43:56.589Z,96617.39
2018-12-17T09:46:26.393Z,96614.53
2018-12-17T09:48:57.428Z,96619.43
2018-12-17T09:51:27.209Z,96620.47
2018-12-17T09:53:57.310Z,96624.87
2018-12-17T09:56:27.141Z,96624.53
2018-12-17T09:58:57.230Z,96628.50
2018-12-17T10:01:27.063Z,96628.91
2018-12-17T10:03:56.879Z,96627.61
2018-12-17T10:06:26.739Z,96624.58
2018-12-17T10:08:56.530Z,96624.08
2018-12-17T10:11:26.768Z,96630.86
2018-12-17T10:13:56.550Z,96629.03
2018-12-17T10:16:26.350Z,96626.89
2018-12-17T10:18:57.394Z,96618.74
2018-12-17T10:21:27.260Z,96619.80
2018-12-17T10:23:57.754Z,96617.99
2018-12-17T10:26:27.577Z,96617.99
2018-12-17T10:28:57.694Z,96623.18
2018-12-17T10:31:27.748Z,96639.48
2018-12-17T10:33:57.615Z,96638.80
2018-12-17T10:36:27.654Z,96636.14
2018-12-17T10:38:57.452Z,96634.08
2018-12-17T10:42:56.604Z,96629.97
2018-12-17T10:45:26.409Z,96631.31
2018-12-17T10:47:56.866Z,96631.42
2018-12-17T10:50:26.940Z,96626.23
2018-12-17T10:52:57.092Z,96625.05
2018-12-17T10:55:26.974Z,96624.71
2018-12-17T10:57:57.950Z,96622.70
2018-12-17T11:01:33.840Z,96622.07
2018-12-17T11:04:08.264Z,96630.27
2018-12-17T11:06:38.112Z,96633.52
2018-12-17T11:09:09.184Z,96634.66
2018-12-17T11:11:38.984Z,96636.59
2018-12-17T11:14:09.208Z,96621.88
2018-12-17T11:16:39.048Z,96626.03
2018-12-17T11:19:09.118Z,96628.41
2018-12-17T11:21:39.464Z,96636.72
2018-12-17T11:24:09.854Z,96634.69
2018-12-17T11:26:39.721Z,96632.20
2018-12-17T11:29:09.494Z,96634.69
2018-12-17T11:31:39.251Z,96634.10
2018-12-17T11:34:09.016Z,96634.55
2018-12-17T11:36:39.518Z,96638.59
2018-12-17T11:39:10.693Z,96629.58
2018-12-17T11:41:40.444Z,96638.70
2018-12-17T11:44:10.304Z,96638.04
2018-12-17T11:46:40.107Z,96634.34
2018-12-17T11:49:10.236Z,96639.84
2018-12-17T11:51:40.372Z,96645.63
2018-12-17T11:54:10.613Z,96649.54
2018-12-17T11:57:29.665Z,96654.83
2018-12-17T12:00:00.050Z,96655.73
2018-12-17T12:02:29.865Z,96655.09
2018-12-17T12:04:59.642Z,96661.84
2018-12-17T12:07:29.420Z,96652.63
2018-12-17T12:09:59.184Z,96649.02
2018-12-17T12:12:29.021Z,96651.83
2018-12-17T12:14:58.849Z,96655.22
2018-12-17T12:17:28.616Z,96658.55
2018-12-17T12:19:58.441Z,96662.73
2018-12-17T12:22:28.237Z,96661.06
2018-12-17T12:24:58.473Z,96659.48
2018-12-17T12:27:28.911Z,96661.72
2018-12-17T12:30:00.263Z,96657.56
2018-12-17T12:32:30.453Z,96651.96
2018-12-17T12:35:00.878Z,96652.74
2018-12-17T12:37:31.469Z,96650.30
2018-12-17T12:40:01.299Z,96649.84
2018-12-17T12:42:31.111Z,96643.09
2018-12-17T12:45:00.923Z,96646.37
2018-12-17T12:47:30.723Z,96649.08
2018-12-17T12:50:00.466Z,96652.12
2018-12-17T12:52:30.267Z,96657.42
2018-12-17T12:55:00.253Z,96658.88
2018-12-17T12:57:30.527Z,96659.75
2018-12-17T13:00:00.277Z,96669.41
2018-12-17T13:02:30.047Z,96664.80
2018-12-17T13:05:00.227Z,96671.34
2018-12-17T13:07:30.364Z,96670.41
2018-12-17T13:10:00.135Z,96676.83
2018-12-17T13:12:29.929Z,96672.09
2018-12-17T13:14:59.695Z,96679.39
2018-12-17T13:17:29.723Z,96680.42
2018-12-17T13:19:59.511Z,96678.05
2018-12-17T13:22:29.289Z,96686.70
2018-12-17T13:24:59.141Z,96678.36
2018-12-17T13:27:28.918Z,96688.81
2018-12-17T13:29:59.025Z,96691.19
2018-12-17T13:32:28.835Z,96694.68
2018-12-17T13:34:59.216Z,96700.87
2018-12-17T13:37:28.995Z,96705.82
2018-12-17T13:39:58.908Z,96710.31
2018-12-17T13:42:29.120Z,96716.75
2018-12-17T13:44:58.862Z,96715.90
2018-12-17T13:47:28.745Z,96719.53
2018-12-17T13:50:02.597Z,96722.64
2018-12-17T13:52:37.512Z,96725.34
2018-12-17T13:55:08.380Z,96733.33
2018-12-17T13:57:38.177Z,96737.73
2018-12-17T14:00:11.815Z,96737.27
2018-12-17T14:02:42.832Z,96753.02
2018-12-17T14:05:12.748Z,96749.97
2018-12-17T14:07:42.567Z,96750.97
2018-12-17T14:10:17.520Z,96754.22
2018-12-17T14:12:47.295Z,96755.09
2018-12-17T14:15:17.049Z,96761.77
2018-12-17T14:17:47.756Z,96761.77
2018-12-17T14:20:23.271Z,96758.62
2018-12-17T14:22:53.054Z,96773.00
2018-12-17T14:25:22.863Z,96767.61
2018-12-17T14:27:53.000Z,96768.75
2018-12-17T14:30:22.789Z,96780.34
2018-12-17T14:32:52.609Z,96784.98
2018-12-17T14:35:22.440Z,96792.97
2018-12-17T14:37:57.436Z,96791.72
2018-12-17T14:40:27.413Z,96796.78
2018-12-17T14:42:57.237Z,96800.06
2018-12-17T14:45:27.030Z,96811.55
2018-12-17T14:47:56.828Z,96807.47
2018-12-17T14:50:26.972Z,96806.67
2018-12-17T14:52:56.846Z,96812.83
2018-12-17T14:55:27.065Z,96820.16
2018-12-17T14:57:57.333Z,96829.13
2018-12-17T15:00:27.159Z,96828.47
2018-12-17T15:02:57.015Z,96841.06
2018-12-17T15:05:27.205Z,96840.30
2018-12-17T15:07:57.353Z,96845.04
2018-12-17T15:10:27.800Z,96851.20
2018-12-17T15:12:57.604Z,96850.51
2018-12-17T15:15:27.737Z,96858.94
2018-12-17T15:17:57.491Z,96868.48
2018-12-17T15:20:27.644Z,96872.53
2018-12-17T15:22:57.421Z,96886.58
2018-12-17T15:25:27.517Z,96892.63
2018-12-17T15:27:57.805Z,96896.68
2018-12-17T15:30:27.900Z,96901.66
2018-12-17T15:32:57.722Z,96910.97
2018-12-17T15:35:27.485Z,96922.91
2018-12-17T15:37:57.359Z,96926.16
2018-12-17T15:40:27.180Z,96929.76
2018-12-17T15:42:56.961Z,96931.40
2018-12-17T15:45:27.919Z,96945.11
2018-12-17T15:47:57.677Z,96941.41
2018-12-17T15:50:27.493Z,96945.66
2018-12-17T15:52:57.363Z,96941.66
2018-12-17T15:55:27.178Z,96945.16
2018-12-17T15:57:57.009Z,96949.30
2018-12-17T16:00:26.747Z,96950.75
2018-12-17T16:02:56.793Z,96952.75
2018-12-17T16:05:26.821Z,96949.75
2018-12-17T16:07:56.560Z,96958.00
2018-12-17T16:10:26.321Z,96960.81
2018-12-17T16:12:56.171Z,96957.70
2018-12-17T16:15:26.261Z,96961.95
2018-12-17T16:17:56.829Z,96967.66
2018-12-17T16:20:26.622Z,96959.90
2018-12-17T16:22:56.421Z,96956.00
2018-12-17T16:25:26.329Z,96952.80
2018-12-17T16:27:56.110Z,96958.70
2018-12-17T16:30:26.189Z,96955.69
2018-12-17T16:32:55.943Z,96958.19
2018-12-17T16:35:26.149Z,96963.59
2018-12-17T16:37:55.956Z,96972.09
2018-12-17T16:40:26.908Z,96968.48
2018-12-17T16:42:56.732Z,96971.30
2018-12-17T16:45:26.809Z,96976.30
2018-12-17T16:47:57.354Z,96980.52
2018-12-17T16:50:27.443Z,96984.04
2018-12-17T16:52:57.286Z,96982.23
2018-12-17T16:55:27.376Z,96982.87
2018-12-17T16:57:57.468Z,96993.08
2018-12-17T17:00:27.264Z,96993.08
2018-12-17T17:02:57.102Z,96994.00
2018-12-17T17:05:27.147Z,96995.16
2018-12-17T17:07:56.950Z,97001.20
2018-12-17T17:10:26.688Z,97004.95
2018-12-17T17:12:56.482Z,97014.84
2018-12-17T17:15:27.706Z,97018.80
2018-12-17T17:17:57.472Z,97012.34
2018-12-17T17:20:27.224Z,97004.41
2018-12-17T17:22:56.963Z,97008.13
2018-12-17T17:25:26.776Z,97021.86
2018-12-17T17:27:56.514Z,97026.45
2018-12-17T17:30:26.255Z,97029.30
2018-12-17T17:32:56.068Z,97027.31
2018-12-17T17:35:26.394Z,97027.78
2018-12-17T17:37:56.254Z,97015.18
2018-12-17T17:40:26.353Z,97021.86
2018-12-17T17:42:56.244Z,97011.16
2018-12-17T17:45:26.210Z,97027.09
2018-12-17T17:47:55.973Z,97046.76
2018-12-17T17:50:25.734Z,97048.30
2018-12-17T17:52:55.524Z,97048.03
2018-12-17T17:55:25.293Z,97039.75
2018-12-17T17:57:55.874Z,97052.38
2018-12-17T18:00:25.612Z,97042.52
2018-12-17T18:02:55.416Z,97049.33
2018-12-17T18:05:25.150Z,97052.83
2018-12-17T18:07:54.912Z,97062.36
2018-12-17T18:10:24.620Z,97063.73
2018-12-17T18:12:54.364Z,97067.48
2018-12-17T18:15:24.204Z,97065.81
2018-12-17T18:17:53.972Z,97074.53
2018-12-17T18:20:23.758Z,97070.27
2018-12-17T18:22:53.531Z,97083.25
2018-12-17T18:25:23.332Z,97080.34
2018-12-17T18:27:53.109Z,97074.07
2018-12-17T18:30:22.864Z,97082.08
2018-12-17T18:32:52.607Z,97087.41
2018-12-17T18:35:23.268Z,97096.09
2018-12-17T18:37:53.058Z,97100.64
2018-12-17T18:40:22.818Z,97102.92
2018-12-17T18:42:52.596Z,97103.22
2018-12-17T18:45:22.886Z,97104.43
2018-12-17T18:47:52.647Z,97111.92
2018-12-17T18:50:22.873Z,97101.94
2018-12-17T18:52:52.627Z,97111.74
2018-12-17T18:55:22.656Z,97111.50
2018-12-17T18:57:52.473Z,97104.36
2018-12-17T19:00:22.194Z,97111.27
2018-12-17T19:02:51.979Z,97115.40
2018-12-17T19:05:21.794Z,97114.91
2018-12-17T19:07:51.856Z,97115.70
2018-12-17T19:10:21.609Z,97118.28
2018-12-17T19:12:51.423Z,97120.66
2018-12-17T19:15:21.407Z,97122.80
2018-12-17T19:17:51.169Z,97127.01
2018-12-17T19:20:21.197Z,97130.09
2018-12-17T19:22:50.952Z,97139.53
2018-12-17T19:25:20.774Z,97141.46
2018-12-17T19:27:50.943Z,97147.18
2018-12-17T19:30:21.059Z,97144.56
2018-12-17T19:32:50.886Z,97140.91
2018-12-17T19:35:20.593Z,97144.87
2018-12-17T19:37:50.331Z,97151.44
2018-12-17T19:40:20.054Z,97153.28
2018-12-17T19:42:49.828Z,97150.56
2018-12-17T19:45:19.571Z,97147.87
2018-12-17T19:47:49.391Z,97147.41
2018-12-17T19:50:19.429Z,97146.05
2018-12-17T19:52:49.743Z,97145.59
2018-12-17T19:55:19.915Z,97145.26
2018-12-17T19:57:49.780Z,97142.86
2018-12-17T20:00:19.689Z,97134.14
2018-12-17T20:02:49.822Z,97132.24
2018-12-17T20:05:20.042Z,97132.24
2018-12-17T20:07:49.853Z,97132.49
2018-12-17T20:10:26.729Z,97127.48
2018-12-17T20:12:57.123Z,97131.77
2018-12-17T20:15:27.034Z,97132.95
2018-12-17T20:17:58.037Z,97124.88
2018-12-17T20:20:27.853Z,97127.10
2018-12-17T20:22:58.120Z,97128.06
2018-12-17T20:25:28.245Z,97125.12
2018-12-17T20:27:58.406Z,97122.97
2018-12-17T20:30:28.234Z,97129.72
2018-12-17T20:32:58.074Z,97129.41
2018-12-17T20:35:27.836Z,97125.92
2018-12-17T20:37:57.652Z,97132.66
2018-12-17T20:40:27.745Z,97130.98
2018-12-17T20:42:57.622Z,97137.97
2018-12-17T20:45:27.410Z,97144.79
2018-12-17T20:47:57.213Z,97145.41
2018-12-17T20:50:26.978Z,97143.98
2018-12-17T20:52:56.757Z,97153.20
2018-12-17T20:55:30.575Z,97157.16
2018-12-17T20:57:58.976Z,97151.52
2018-12-17T21:00:29.510Z,97155.39
2018-12-17T21:03:00.506Z,97157.55
2018-12-17T21:05:31.772Z,97157.80
2018-12-17T21:08:01.680Z,97156.20
2018-12-17T21:10:31.737Z,97152.07
2018-12-17T21:13:02.117Z,97143.84
2018-12-17T21:15:31.898Z,97142.33
2018-12-17T21:18:01.684Z,97136.86
2018-12-17T21:20:32.317Z,97141.92
2018-12-17T21:23:04.042Z,97140.11
2018-12-17T21:25:33.972Z,97138.76
2018-12-17T21:28:04.373Z,97142.34
2018-12-17T21:30:34.377Z,97151.53
2018-12-17T21:33:06.847Z,97152.80
2018-12-17T21:35:37.855Z,97146.47
2018-12-17T21:38:08.398Z,97156.83
2018-12-17T21:40:38.455Z,97156.52
2018-12-17T21:43:08.491Z,97154.93
2018-12-17T21:45:38.308Z,97153.03
2018-12-17T21:48:08.065Z,97147.81
2018-12-17T21:50:37.842Z,97149.63
2018-12-17T21:53:07.935Z,97146.94
2018-12-17T21:55:37.808Z,97139.15
2018-12-17T21:58:08.310Z,97140.52
2018-12-17T22:00:38.422Z,97141.52
2018-12-17T22:03:13.214Z,97131.95
2018-12-17T22:06:24.305Z,97135.84
2018-12-17T22:08:54.088Z,97136.86
2018-12-17T22:11:23.851Z,97148.13
2018-12-17T22:13:53.631Z,97144.45
2018-12-17T22:16:23.715Z,97151.37
2018-12-17T22:18:54.353Z,97156.16
2018-12-17T22:21:24.236Z,97157.74
2018-12-17T22:23:54.034Z,97160.20
2018-12-17T22:27:53.240Z,97157.86
2018-12-17T22:30:23.751Z,97166.80
2018-12-17T22:32:53.537Z,97166.67
2018-12-17T22:35:23.651Z,97166.53
2018-12-17T22:37:53.491Z,97164.70
2018-12-17T22:40:23.799Z,97164.83
2018-12-17T22:42:53.603Z,97164.89
2018-12-17T22:45:23.873Z,97167.46
2018-12-17T22:47:53.734Z,97160.52
2018-12-17T22:50:23.541Z,97160.09
2018-12-17T22:52:54.167Z,97162.92
2018-12-17T22:55:24.304Z,97160.38
2018-12-17T22:57:54.449Z,97161.61
2018-12-17T23:00:25.445Z,97159.65
2018-12-17T23:02:55.219Z,97154.20
2018-12-17T23:05:25.036Z,97155.08
2018-12-17T23:07:54.799Z,97150.68
2018-12-17T23:10:44.960Z,97148.42
2018-12-17T23:13:32.246Z,97156.31
2018-12-17T23:16:18.888Z,97152.97
2018-12-17T23:18:47.182Z,97153.31
2018-12-17T23:21:19.453Z,97154.20
2018-12-17T23:23:50.077Z,97155.12
2018-12-17T23:26:19.900Z,97157.20
2018-12-17T23:28:49.733Z,97149.58
2018-12-17T23:31:19.552Z,97150.69
2018-12-17T23:33:49.292Z,97149.13
2018-12-17T23:36:18.960Z,97146.30
2018-12-17T23:38:49.224Z,97148.31
2018-12-17T23:41:18.970Z,97148.60
2018-12-17T23:43:49.896Z,97144.22
2018-12-17T23:46:19.700Z,97140.54
2018-12-17T23:48:50.048Z,97141.72
2018-12-17T23:51:19.937Z,97147.77
2018-12-17T23:53:49.806Z,97147.25
2018-12-17T23:56:19.688Z,97145.44
2018-12-17T23:58:49.518Z,97139.64
